Monday, July 23, 2018, 11:34 AM EDT
Back to Local

K12N, Aeroflex-andover Airport

Location: Newton, NJ, United States Lat: 41.017
Local Time: 11:34 AM EDT (15:34 GMT) Lon: -74.733
Time Zone: US/Eastern Elev: 583 ft

Show me the last for .
Show Decoded

2018-07-23 10:54 METAR K12N 231454Z AUTO VRB06KT 25/23 A3011 RMK AO1 SLP187 60049 T02500233 53016
                 =
2018-07-23 09:54 METAR K12N 231354Z AUTO VRB05KT 24/24 A3009 RMK AO1 SLP180 P0044 T02390239 =
2018-07-23 08:54 METAR K12N 231254Z AUTO VRB03KT 23/23 A3007 RMK AO1 SLP176 P0005 T02330233 =
2018-07-23 07:54 METAR K12N 231154Z AUTO 00000KT 23/23 A3006 RMK AO1 SLP172 P0045 60067 70087
                 T02280228 10239 20222 53012 =
2018-07-23 06:54 METAR K12N 231054Z AUTO VRB04KT 22/22 A3005 RMK AO1 SLP168 P0015 T02220222 =
2018-07-23 05:54 METAR K12N 230954Z AUTO VRB03KT 23/22 A3003 RMK AO1 SLP161 P0006 T02280222 =
2018-07-23 04:54 METAR K12N 230854Z AUTO VRB03KT 23/23 A3002 RMK AO1 SLP157 P0001 60001 T02330233
                 53004 =
2018-07-23 03:54 METAR K12N 230754Z AUTO VRB04KT 23/23 A3001 RMK AO1 SLP151 T02330233 =
2018-07-23 02:54 METAR K12N 230654Z AUTO VRB04KT 24/23 A3001 RMK AO1 SLP154 T02390233 =
2018-07-23 01:54 METAR K12N 230554Z AUTO VRB03KT 24/24 A3001 RMK AO1 SLP153 P0002 60016 T02390239
                 10239 20228 58001 =
2018-07-23 00:54 METAR K12N 230454Z AUTO 00000KT 23/23 A3002 RMK AO1 SLP158 P0013 T02280228
                 402830178 =
2018-07-22 23:54 METAR K12N 230354Z AUTO VRB03KT 24/24 A3002 RMK AO1 SLP157 T02390239 =
2018-07-22 22:54 METAR K12N 230254Z AUTO 00000KT 24/23 A3002 RMK AO1 SLP155 60001 T02390233 50013
                 =
2018-07-22 21:54 METAR K12N 230154Z AUTO 00000KT 23/23 A3002 RMK AO1 SLP157 T02330228 =
2018-07-22 20:54 METAR K12N 230054Z AUTO VRB04KT 23/23 A2999 RMK AO1 SLP149 P0001 T02330228 =
2018-07-22 19:54 METAR K12N 222354Z AUTO VRB03KT 23/23 A2998 RMK AO1 SLP144 60004 T02330228 10283
                 20233 53012 =
2018-07-22 18:54 METAR K12N 222254Z AUTO VRB04KT 24/23 A2997 RMK AO1 SLP139 P0004 T02390228 =
2018-07-22 17:54 METAR K12N 222154Z AUTO 11007KT 040V170 27/23 A2994 RMK AO1 SLP129 T02720228 =
2018-07-22 16:54 METAR K12N 222054Z AUTO VRB03KT 27/22 A2994 RMK AO1 SLP130 T02720222 53001 =
2018-07-22 15:54 METAR K12N 221954Z AUTO VRB05KT 28/22 A2993 RMK AO1 SLP126 T02780222 =
2018-07-22 14:54 METAR K12N 221854Z AUTO VRB03G16KT 27/22 A2994 RMK AO1 SLP129 T02670217 =
2018-07-22 13:54 METAR K12N 221754Z AUTO VRB03KT 27/22 A2994 RMK AO1 SLP131 T02670217 10272 20217
                 50012 =
2018-07-22 12:54 METAR K12N 221654Z AUTO VRB05KT 26/21 A2995 RMK AO1 SLP132 T02610211 =
2018-07-22 11:54 METAR K12N 221554Z AUTO 20008G16KT 160V240 25/22 A2993 RMK AO1 SLP129 T02500217
                 =

Support USWX by starting your Amazon purchase here.